Time;durP1;ratioP1;P1;durP2;ratioP2;P2;SDS_P1;SDS_P2;PMS_P1;PMS_P2;Temp;Humidity;BMP_temperature;BMP_pressure;BME280_temperature;BME280_humidity;BME280_pressure;Samples;Min_cycle;Max_cycle;Signal;HPM_P1;HPM_P2
2021/05/11 00:00:27;;;;;;;19.67;10.10;;;12.80;99.90;;;;;;4147234;28;20038;-77
2021/05/11 00:02:28;;;;;;;16.13;9.48;;;12.80;99.90;;;;;;4146520;28;20042;-79
2021/05/11 00:04:28;;;;;;;17.70;10.20;;;12.90;99.90;;;;;;4147255;28;20038;-78
2021/05/11 00:06:29;;;;;;;18.52;10.15;;;12.90;99.90;;;;;;4147159;28;20030;-79
2021/05/11 00:08:30;;;;;;;23.77;10.30;;;12.90;99.90;;;;;;4146812;28;20034;-78
2021/05/11 00:10:30;;;;;;;17.05;9.40;;;12.80;99.90;;;;;;4151466;28;20026;-80
2021/05/11 00:12:31;;;;;;;19.85;10.68;;;12.80;99.90;;;;;;4146496;28;20088;-80
2021/05/11 00:14:32;;;;;;;17.13;10.52;;;12.80;99.90;;;;;;4146876;28;20040;-80
2021/05/11 00:16:36;;;;;;;25.70;11.32;;;12.90;99.90;;;;;;4179781;28;20040;-80
2021/05/11 00:18:37;;;;;;;29.58;10.68;;;12.90;99.90;;;;;;4162929;28;20500;-79
2021/05/11 00:20:37;;;;;;;21.40;11.18;;;12.90;99.90;;;;;;4129746;28;20038;-79
2021/05/11 00:22:38;;;;;;;23.23;10.40;;;12.80;99.90;;;;;;4178333;28;20128;-79
2021/05/11 00:24:39;;;;;;;21.25;10.80;;;12.80;99.90;;;;;;4162012;28;20485;-80
2021/05/11 00:26:39;;;;;;;15.90;10.38;;;12.80;99.90;;;;;;4146838;28;20049;-79
2021/05/11 00:28:40;;;;;;;18.35;11.20;;;12.70;99.90;;;;;;4145368;28;20041;-79
2021/05/11 00:30:41;;;;;;;20.55;9.95;;;12.70;99.90;;;;;;4147024;28;20049;-79
2021/05/11 00:32:41;;;;;;;15.32;11.45;;;12.70;99.90;;;;;;4145456;28;20201;-79
2021/05/11 00:34:42;;;;;;;17.50;10.30;;;12.60;99.90;;;;;;4146888;28;20042;-79
2021/05/11 00:36:43;;;;;;;26.70;11.88;;;12.60;99.90;;;;;;4146998;28;20038;-78
2021/05/11 00:38:44;;;;;;;20.08;10.38;;;12.50;99.90;;;;;;4130040;28;20038;-80
2021/05/11 00:40:45;;;;;;;18.95;11.32;;;12.50;99.90;;;;;;4146528;28;20042;-79
2021/05/11 00:42:46;;;;;;;23.55;11.55;;;12.50;99.90;;;;;;4147808;28;20034;-79
2021/05/11 00:44:46;;;;;;;20.15;10.13;;;12.40;99.90;;;;;;4146363;28;20065;-80
2021/05/11 00:47:01;;;;;;;25.05;10.73;;;12.50;99.90;;;;;;4162984;28;20591;-80
2021/05/11 00:49:02;;;;;;;16.98;10.45;;;12.40;99.90;;;;;;4146311;28;20374;-79
2021/05/11 00:51:04;;;;;;;22.85;12.15;;;12.40;99.90;;;;;;4148052;28;20084;-79
2021/05/11 00:53:05;;;;;;;17.98;11.32;;;12.40;99.90;;;;;;4147745;28;20092;-79
2021/05/11 00:55:07;;;;;;;19.98;11.25;;;12.40;99.90;;;;;;4146277;28;20030;-80
2021/05/11 00:57:09;;;;;;;19.70;12.02;;;12.40;99.90;;;;;;4146390;28;20041;-80
2021/05/11 00:59:19;;;;;;;18.20;11.20;;;12.50;99.90;;;;;;4152447;28;20481;-81
2021/05/11 01:01:20;;;;;;;20.17;11.13;;;12.60;99.90;;;;;;4147528;28;20042;-78
2021/05/11 01:03:21;;;;;;;20.00;10.85;;;12.70;99.90;;;;;;4146193;28;20441;-78
2021/05/11 01:05:21;;;;;;;26.30;12.18;;;12.70;99.90;;;;;;4145910;28;21247;-79
2021/05/11 01:07:22;;;;;;;23.48;10.93;;;12.70;99.90;;;;;;4146570;28;20038;-80
2021/05/11 01:09:25;;;;;;;17.90;10.45;;;12.60;99.90;;;;;;4147581;28;20048;-79
2021/05/11 01:11:26;;;;;;;20.67;11.60;;;12.60;99.90;;;;;;4146176;28;20481;-79
2021/05/11 01:13:27;;;;;;;16.92;9.88;;;12.60;99.90;;;;;;4146236;28;20277;-78
2021/05/11 01:15:29;;;;;;;19.05;11.88;;;12.50;99.90;;;;;;4146049;28;20116;-80
2021/05/11 01:17:33;;;;;;;24.30;12.70;;;12.50;99.90;;;;;;4146091;28;20030;-79
2021/05/11 01:23:59;;;;;;;21.08;11.30;;;12.40;99.90;;;;;;4146260;28;20041;-79
2021/05/11 01:26:09;;;;;;;23.80;13.07;;;12.40;99.90;;;;;;4162234;28;20034;-80
2021/05/11 01:28:20;;;;;;;21.17;12.18;;;12.40;99.90;;;;;;4146520;28;20587;-78
2021/05/11 01:31:03;;;;;;;20.00;11.73;;;12.40;99.90;;;;;;4161232;28;20044;-78
2021/05/11 01:49:21;;;;;;;14.80;10.60;;;12.30;99.90;;;;;;4145549;28;20084;-80
2021/05/11 02:10:30;;;;;;;19.65;10.10;;;12.20;99.90;;;;;;4149083;28;20049;-79
2021/05/11 02:24:07;;;;;;;19.65;11.27;;;12.10;99.90;;;;;;4148485;28;20045;-79
2021/05/11 02:26:08;;;;;;;22.33;12.95;;;12.10;99.90;;;;;;4132196;28;20026;-79
2021/05/11 02:28:09;;;;;;;19.52;11.23;;;12.10;99.90;;;;;;4149020;28;20382;-80
2021/05/11 02:30:12;;;;;;;26.15;12.75;;;12.10;99.90;;;;;;4148958;28;20040;-80
2021/05/11 02:32:16;;;;;;;21.25;11.30;;;12.10;99.90;;;;;;4148781;28;20591;-79
2021/05/11 02:34:17;;;;;;;19.45;12.02;;;12.00;99.90;;;;;;4164782;28;20528;-78
2021/05/11 02:36:17;;;;;;;21.88;12.38;;;12.00;99.90;;;;;;4148665;28;20085;-79
2021/05/11 02:38:18;;;;;;;21.35;12.02;;;12.00;99.90;;;;;;4164764;28;20067;-78
2021/05/11 02:40:22;;;;;;;22.83;12.88;;;11.90;99.90;;;;;;4132352;28;20121;-79
2021/05/11 02:42:22;;;;;;;17.88;12.00;;;11.90;99.90;;;;;;4148787;28;20065;-80
2021/05/11 02:44:23;;;;;;;22.88;11.57;;;11.90;99.90;;;;;;4148163;28;20064;-79
2021/05/11 02:46:24;;;;;;;19.80;11.48;;;11.90;99.90;;;;;;4148264;28;20053;-78
2021/05/11 02:48:25;;;;;;;22.70;11.73;;;11.90;99.90;;;;;;4148009;28;20124;-80
2021/05/11 02:50:29;;;;;;;23.40;12.55;;;11.80;99.90;;;;;;4148259;28;20124;-79
2021/05/11 02:52:30;;;;;;;24.30;13.00;;;11.80;99.90;;;;;;4164774;28;20117;-79
2021/05/11 02:54:31;;;;;;;25.20;13.18;;;11.80;99.90;;;;;;4148331;28;20045;-79
2021/05/11 02:56:32;;;;;;;31.65;12.65;;;11.80;99.90;;;;;;4181433;28;20528;-79
2021/05/11 02:58:35;;;;;;;23.27;11.95;;;11.80;99.90;;;;;;4147391;28;20050;-77
2021/05/11 03:00:36;;;;;;;20.77;12.23;;;11.80;99.90;;;;;;4164259;28;20037;-78
2021/05/11 03:02:37;;;;;;;25.38;12.00;;;11.80;99.90;;;;;;4149477;28;20092;-79
2021/05/11 03:04:37;;;;;;;18.85;11.90;;;11.90;99.90;;;;;;4148197;28;20042;-80
2021/05/11 03:06:38;;;;;;;19.10;11.57;;;11.90;99.90;;;;;;4148119;28;20720;-79
2021/05/11 03:08:42;;;;;;;20.25;11.75;;;12.00;99.90;;;;;;4147923;28;20044;-79
2021/05/11 03:10:43;;;;;;;20.02;12.30;;;12.00;99.90;;;;;;4164297;28;20116;-79
2021/05/11 03:12:44;;;;;;;19.77;11.60;;;12.00;99.90;;;;;;4147621;28;20037;-79
2021/05/11 03:14:45;;;;;;;18.48;11.65;;;12.10;99.90;;;;;;4164519;28;20052;-79
2021/05/11 03:16:48;;;;;;;17.30;11.52;;;12.10;99.90;;;;;;4147830;28;20038;-79
2021/05/11 03:18:49;;;;;;;21.73;11.15;;;12.20;99.90;;;;;;4147662;28;20070;-79
2021/05/11 03:20:49;;;;;;;19.30;11.85;;;12.20;99.90;;;;;;4147746;28;20037;-79
2021/05/11 03:22:50;;;;;;;21.40;13.07;;;12.20;99.90;;;;;;4147744;28;20038;-79
2021/05/11 03:24:51;;;;;;;27.67;12.40;;;12.20;99.90;;;;;;4149202;28;20042;-79
2021/05/11 03:26:52;;;;;;;26.30;13.25;;;12.20;99.90;;;;;;4164208;28;20033;-79
2021/05/11 03:28:53;;;;;;;22.33;13.15;;;12.20;99.90;;;;;;4147316;28;20038;-79
2021/05/11 03:30:53;;;;;;;21.23;11.40;;;12.20;99.90;;;;;;4147583;28;20388;-79
2021/05/11 03:32:54;;;;;;;25.77;11.65;;;12.10;99.90;;;;;;4147639;28;20054;-80
2021/05/11 03:34:55;;;;;;;19.20;11.45;;;12.10;99.90;;;;;;4147545;28;20040;-79
2021/05/11 03:36:56;;;;;;;21.77;13.43;;;12.10;99.90;;;;;;4148924;28;20607;-79
2021/05/11 03:39:00;;;;;;;23.13;13.13;;;12.00;99.90;;;;;;4147489;28;20042;-80
2021/05/11 03:41:01;;;;;;;21.83;13.75;;;12.00;99.90;;;;;;4147376;28;20478;-79
2021/05/11 03:43:06;;;;;;;25.33;13.35;;;12.00;99.90;;;;;;4147435;28;20030;-78
2021/05/11 03:45:12;;;;;;;28.88;14.82;;;11.90;99.90;;;;;;4163320;28;20052;-80
2021/05/11 03:47:16;;;;;;;23.75;13.70;;;11.90;99.90;;;;;;4147642;28;20505;-80
2021/05/11 03:49:16;;;;;;;22.23;13.70;;;11.90;99.90;;;;;;4148966;28;20100;-79
2021/05/11 03:51:17;;;;;;;23.85;13.80;;;11.90;99.90;;;;;;4131254;28;20105;-78
2021/05/11 03:53:18;;;;;;;21.40;13.02;;;11.90;99.90;;;;;;4179957;28;20041;-79
2021/05/11 03:55:19;;;;;;;29.08;14.55;;;11.90;99.90;;;;;;4147479;28;20531;-80
2021/05/11 03:57:20;;;;;;;22.75;14.13;;;11.90;99.90;;;;;;4146567;28;20030;-80
2021/05/11 03:59:21;;;;;;;23.60;14.07;;;11.90;99.90;;;;;;4148263;28;20088;-80
2021/05/11 04:01:23;;;;;;;20.50;13.73;;;11.90;99.90;;;;;;4147407;28;20049;-81
2021/05/11 04:03:24;;;;;;;20.90;13.65;;;11.80;99.90;;;;;;4147322;28;20497;-80
2021/05/11 04:05:25;;;;;;;21.40;15.48;;;11.80;99.90;;;;;;4147009;28;20065;-79
2021/05/11 04:07:26;;;;;;;25.25;14.80;;;11.80;99.90;;;;;;4147203;28;20111;-79
2021/05/11 04:12:01;;;;;;;24.63;15.15;;;11.90;99.90;;;;;;4148447;28;20104;-80
2021/05/11 04:14:17;;;;;;;23.88;14.55;;;11.80;99.90;;;;;;4146821;28;20059;-78
2021/05/11 04:16:26;;;;;;;31.02;15.30;;;11.90;99.90;;;;;;4145365;28;20477;-78
2021/05/11 04:18:27;;;;;;;25.35;14.23;;;11.90;99.90;;;;;;4145730;28;20045;-79
2021/05/11 04:20:28;;;;;;;22.45;13.27;;;11.80;99.90;;;;;;4145848;28;20593;-79
2021/05/11 04:22:29;;;;;;;26.00;14.68;;;11.90;99.90;;;;;;4162318;28;20041;-79
2021/05/11 04:24:29;;;;;;;22.83;14.23;;;11.90;99.90;;;;;;4145795;28;20042;-79
2021/05/11 04:26:32;;;;;;;22.73;13.50;;;11.90;99.90;;;;;;4148319;28;20108;-80
2021/05/11 04:28:33;;;;;;;21.05;12.20;;;11.90;99.90;;;;;;4163125;28;20037;-78
2021/05/11 04:30:34;;;;;;;19.95;12.13;;;11.90;99.90;;;;;;4147849;28;20037;-79
2021/05/11 04:32:35;;;;;;;21.90;13.05;;;11.90;99.90;;;;;;4146523;28;20080;-80
2021/05/11 04:34:35;;;;;;;20.73;14.00;;;12.00;99.90;;;;;;4130437;28;20066;-80
2021/05/11 04:36:36;;;;;;;18.88;13.13;;;12.00;99.90;;;;;;4179687;28;20087;-79
2021/05/11 04:38:38;;;;;;;23.75;14.02;;;12.00;99.90;;;;;;4147506;28;20045;-80
2021/05/11 04:40:38;;;;;;;20.75;13.25;;;12.10;99.90;;;;;;4147673;28;20042;-80
2021/05/11 04:42:42;;;;;;;18.50;13.50;;;12.10;99.90;;;;;;4146453;28;20038;-79
2021/05/11 04:44:43;;;;;;;22.90;13.07;;;12.20;99.90;;;;;;4162646;28;20077;-79
2021/05/11 04:46:51;;;;;;;22.55;13.80;;;12.20;99.90;;;;;;4146367;28;20045;-80
2021/05/11 04:48:52;;;;;;;23.83;14.07;;;12.20;99.90;;;;;;4162031;28;20084;-80
2021/05/11 04:50:53;;;;;;;21.73;15.00;;;12.20;99.90;;;;;;4146744;28;20038;-80
2021/05/11 04:52:57;;;;;;;26.42;14.65;;;12.20;99.90;;;;;;4147489;28;20053;-80
2021/05/11 04:54:57;;;;;;;20.77;14.27;;;12.20;99.90;;;;;;4147369;28;20516;-79
2021/05/11 04:56:58;;;;;;;22.20;14.20;;;12.20;99.90;;;;;;4146260;28;20038;-79
2021/05/11 04:58:59;;;;;;;24.15;14.95;;;12.20;99.90;;;;;;4162170;28;20037;-80
2021/05/11 05:01:04;;;;;;;21.90;13.40;;;12.20;99.90;;;;;;4147856;28;20045;-79
2021/05/11 05:03:07;;;;;;;21.63;14.25;;;12.20;99.90;;;;;;4146394;28;20057;-79
2021/05/11 05:05:09;;;;;;;24.95;14.77;;;12.30;99.90;;;;;;4147640;28;20057;-80
2021/05/11 05:07:10;;;;;;;25.65;15.68;;;12.30;99.90;;;;;;4146170;28;20030;-80
2021/05/11 05:09:11;;;;;;;32.67;16.67;;;12.30;99.90;;;;;;4136650;28;20032;-80
2021/05/11 05:11:11;;;;;;;22.00;15.43;;;12.30;99.90;;;;;;4146107;28;20034;-79
2021/05/11 05:13:24;;;;;;;24.40;15.55;;;12.40;99.90;;;;;;4145971;28;20064;-81
2021/05/11 05:15:25;;;;;;;19.70;14.77;;;12.40;99.90;;;;;;4145361;28;20041;-80
2021/05/11 05:17:26;;;;;;;22.70;15.70;;;12.50;99.90;;;;;;4146054;28;20385;-79
2021/05/11 05:19:27;;;;;;;24.35;15.07;;;12.50;99.90;;;;;;4146046;28;20117;-79
2021/05/11 05:21:28;;;;;;;27.08;13.77;;;12.50;99.90;;;;;;4143845;28;20128;-78
2021/05/11 05:23:32;;;;;;;21.65;12.57;;;12.50;99.90;;;;;;4145961;28;20069;-78
2021/05/11 05:25:34;;;;;;;25.83;14.43;;;12.50;99.90;;;;;;4147672;28;20408;-80
2021/05/11 05:27:51;;;;;;;18.95;13.55;;;12.60;99.90;;;;;;4146028;28;20029;-78
2021/05/11 05:29:52;;;;;;;17.85;11.80;;;12.70;99.90;;;;;;4145295;28;20029;-79
2021/05/11 05:31:52;;;;;;;25.60;13.55;;;12.70;99.90;;;;;;4129914;28;20393;-80
2021/05/11 05:33:53;;;;;;;19.38;12.02;;;12.80;99.90;;;;;;4163230;28;20025;-79
2021/05/11 05:35:54;;;;;;;19.13;13.38;;;12.90;99.90;;;;;;4146849;28;20045;-80
2021/05/11 05:37:55;;;;;;;23.70;14.13;;;13.00;99.90;;;;;;4162969;28;20136;-78
2021/05/11 05:39:58;;;;;;;21.10;12.95;;;13.00;99.90;;;;;;4149096;28;20157;-79
2021/05/11 05:41:59;;;;;;;19.73;13.30;;;13.10;99.90;;;;;;4147505;28;20397;-78
2021/05/11 05:44:00;;;;;;;23.02;13.45;;;13.10;99.90;;;;;;4145987;28;20041;-78
2021/05/11 05:46:02;;;;;;;20.65;13.70;;;13.20;99.90;;;;;;4132228;28;20146;-76
2021/05/11 05:48:03;;;;;;;21.90;12.73;;;13.30;99.90;;;;;;4142801;28;20034;-78
2021/05/11 05:50:08;;;;;;;15.80;13.57;;;13.40;99.90;;;;;;4146093;28;20030;-79
2021/05/11 05:52:15;;;;;;;26.63;13.25;;;13.50;99.90;;;;;;4146008;28;20389;-79
2021/05/11 05:54:16;;;;;;;21.13;13.18;;;13.50;99.90;;;;;;4147797;28;20030;-78
2021/05/11 05:56:19;;;;;;;17.70;12.13;;;13.60;99.90;;;;;;4148193;28;20082;-78
2021/05/11 05:58:19;;;;;;;19.27;12.43;;;13.70;99.90;;;;;;4146501;28;20040;-79
2021/05/11 06:00:21;;;;;;;17.67;11.70;;;13.90;99.90;;;;;;4179818;28;20052;-79
2021/05/11 06:02:23;;;;;;;22.73;12.30;;;14.00;99.90;;;;;;4147507;28;20159;-80
2021/05/11 06:04:24;;;;;;;17.83;12.35;;;14.20;99.90;;;;;;4145453;28;20049;-81
2021/05/11 06:06:25;;;;;;;18.95;12.75;;;14.20;99.90;;;;;;4144697;28;20438;-79
2021/05/11 06:08:27;;;;;;;19.77;12.65;;;14.30;99.90;;;;;;4146443;28;20032;-79
2021/05/11 06:10:30;;;;;;;18.67;12.52;;;14.30;99.90;;;;;;4134865;28;20444;-80
2021/05/11 06:12:38;;;;;;;13.13;11.43;;;14.40;99.90;;;;;;4147086;28;20044;-80
2021/05/11 06:17:13;;;;;;;19.60;12.57;;;14.50;99.90;;;;;;4143726;28;20112;-78
2021/05/11 06:19:14;;;;;;;21.05;13.85;;;14.50;99.90;;;;;;4142009;28;20509;-80
2021/05/11 06:21:15;;;;;;;23.67;13.38;;;14.50;99.90;;;;;;4145537;28;20168;-78
2021/05/11 06:23:18;;;;;;;17.30;13.25;;;14.50;99.90;;;;;;4137327;28;20426;-79
2021/05/11 06:25:19;;;;;;;18.08;12.10;;;14.50;99.90;;;;;;4139414;28;20565;-79
2021/05/11 06:27:20;;;;;;;20.13;12.90;;;14.60;99.90;;;;;;4137632;28;20088;-79
2021/05/11 06:29:23;;;;;;;25.30;14.05;;;14.70;99.90;;;;;;4144926;28;20061;-79
2021/05/11 06:31:24;;;;;;;19.00;12.63;;;14.90;99.90;;;;;;4139628;28;20083;-80
2021/05/11 06:33:25;;;;;;;17.25;12.32;;;15.00;99.90;;;;;;4145026;28;20132;-78
2021/05/11 06:38:19;;;;;;;15.85;12.18;;;15.40;99.90;;;;;;4124847;27;2134228;-80
2021/05/11 06:40:19;;;;;;;19.50;12.05;;;15.50;99.90;;;;;;4173747;28;20046;-80
2021/05/11 06:42:22;;;;;;;18.83;12.45;;;15.60;99.90;;;;;;4181372;28;21624;-80
2021/05/11 06:53:14;;;;;;;18.40;12.85;;;16.10;99.90;;;;;;4178281;28;20025;-80
2021/05/11 06:55:17;;;;;;;18.58;11.82;;;16.40;99.90;;;;;;4180380;28;20361;-80
2021/05/11 06:57:18;;;;;;;20.83;12.43;;;16.60;99.90;;;;;;4179163;28;20430;-80
2021/05/11 06:59:21;;;;;;;16.30;12.23;;;16.80;99.90;;;;;;4183225;28;20103;-80
2021/05/11 07:01:22;;;;;;;16.58;12.02;;;16.80;99.90;;;;;;4180848;28;20160;-80
2021/05/11 07:03:26;;;;;;;19.52;12.27;;;16.80;99.90;;;;;;4183028;28;20107;-80
2021/05/11 07:05:30;;;;;;;23.20;13.57;;;16.90;99.90;;;;;;4181866;28;20021;-81
2021/05/11 07:07:35;;;;;;;14.63;12.13;;;16.90;99.90;;;;;;4185402;28;20433;-80
2021/05/11 07:13:55;;;;;;;14.43;11.82;;;16.90;99.90;;;;;;4183897;28;20025;-81
2021/05/11 07:15:57;;;;;;;15.20;12.40;;;16.80;99.90;;;;;;4180058;28;20484;-80
2021/05/11 07:18:18;;;;;;;14.80;11.20;;;16.90;99.90;;;;;;4182609;28;20506;-81
2021/05/11 07:20:18;;;;;;;18.20;13.65;;;17.00;99.90;;;;;;4175886;28;20079;-80
2021/05/11 07:22:20;;;;;;;17.02;14.20;;;17.10;99.90;;;;;;4175385;28;20025;-80
2021/05/11 07:24:26;;;;;;;17.23;11.82;;;17.20;99.90;;;;;;4185707;28;20036;-80
2021/05/11 07:26:28;;;;;;;14.55;11.50;;;17.40;99.90;;;;;;4188135;28;20041;-80
2021/05/11 07:28:39;;;;;;;19.15;12.73;;;17.40;99.90;;;;;;4181009;28;20040;-80
2021/05/11 07:30:40;;;;;;;18.80;13.65;;;17.60;99.90;;;;;;4179808;28;20053;-80
2021/05/11 07:32:42;;;;;;;18.98;13.57;;;17.70;99.90;;;;;;4181455;28;20033;-80
2021/05/11 07:34:47;;;;;;;13.38;11.98;;;17.80;99.90;;;;;;4184994;28;20706;-79
2021/05/11 07:36:48;;;;;;;17.13;13.18;;;18.10;99.90;;;;;;4179548;28;20058;-80
2021/05/11 07:38:50;;;;;;;15.63;12.70;;;18.50;99.90;;;;;;4179494;28;20033;-81
2021/05/11 07:40:54;;;;;;;15.77;12.70;;;18.70;99.90;;;;;;4179692;28;20469;-81
2021/05/11 07:42:55;;;;;;;17.15;13.00;;;18.60;99.90;;;;;;4160057;28;20029;-81
2021/05/11 07:44:59;;;;;;;17.73;12.02;;;18.50;99.90;;;;;;4159962;28;20026;-81
2021/05/11 07:47:11;;;;;;;13.38;10.80;;;18.30;99.90;;;;;;4155380;28;20037;-80
2021/05/11 08:03:15;;;;;;;15.38;13.70;;;18.80;99.90;;;;;;4169918;28;20040;-79
2021/05/11 08:14:28;;;;;;;15.35;12.80;;;18.90;99.90;;;;;;4173371;28;20451;-83
2021/05/11 08:16:29;;;;;;;18.40;12.40;;;18.80;99.90;;;;;;4171766;28;20037;-81
2021/05/11 08:18:41;;;;;;;14.30;12.77;;;18.90;99.90;;;;;;4175106;28;20069;-80
2021/05/11 08:29:23;;;;;;;13.98;12.35;;;18.70;99.90;;;;;;4164484;28;20028;-83
2021/05/11 08:31:25;;;;;;;18.25;13.93;;;18.70;99.90;;;;;;4171659;28;20037;-82
2021/05/11 08:33:27;;;;;;;18.00;13.23;;;18.50;99.90;;;;;;4169069;28;20094;-80
2021/05/11 08:35:27;;;;;;;15.40;11.68;;;18.50;99.90;;;;;;4167998;28;20109;-81
2021/05/11 08:37:28;;;;;;;18.95;13.00;;;18.40;99.90;;;;;;4171025;28;20059;-82
2021/05/11 08:39:28;;;;;;;14.27;12.40;;;18.40;99.90;;;;;;4169545;28;20033;-80
2021/05/11 08:41:29;;;;;;;15.20;12.68;;;18.40;99.90;;;;;;4177718;28;20037;-82
2021/05/11 08:43:31;;;;;;;17.02;13.85;;;18.30;99.90;;;;;;4163345;28;20048;-81
2021/05/11 08:45:32;;;;;;;16.70;13.18;;;18.30;99.90;;;;;;4164701;28;20373;-81
2021/05/11 08:47:36;;;;;;;19.80;15.30;;;18.30;99.90;;;;;;4162286;28;20037;-81
2021/05/11 08:49:39;;;;;;;22.70;15.30;;;18.20;99.90;;;;;;4160128;28;20781;-80
2021/05/11 08:51:53;;;;;;;19.40;15.27;;;18.10;99.90;;;;;;4163610;28;20033;-80
2021/05/11 08:54:18;;;;;;;17.75;14.55;;;18.00;99.90;;;;;;4168783;28;20029;-80
2021/05/11 09:09:37;;;;;;;18.98;16.92;;;17.80;99.90;;;;;;4166612;28;20040;-82
2021/05/11 09:25:16;;;;;;;21.25;17.30;;;17.80;99.90;;;;;;4161030;28;20032;-80
2021/05/11 09:27:25;;;;;;;25.13;17.50;;;17.90;99.90;;;;;;4169797;28;20377;-79
2021/05/11 09:31:56;;;;;;;23.20;17.55;;;17.90;99.90;;;;;;4161284;28;20029;-79
2021/05/11 09:34:57;;;;;;;22.20;17.33;;;17.70;99.90;;;;;;4161602;28;20026;-79
2021/05/11 09:55:49;;;;;;;22.92;16.60;;;17.40;99.90;;;;;;4165750;28;20032;-80
2021/05/11 09:57:58;;;;;;;22.27;18.15;;;17.30;99.90;;;;;;4175992;28;20064;-81
2021/05/11 10:13:20;;;;;;;21.48;16.33;;;16.90;99.90;;;;;;4157146;28;20609;-79
2021/05/11 10:27:06;;;;;;;25.27;16.08;;;16.90;99.90;;;;;;4157091;28;20040;-79
2021/05/11 10:46:24;;;;;;;17.83;13.70;;;19.90;99.90;;;;;;4146642;28;20037;-80
2021/05/11 10:47:17;;;;;;;14.95;12.50;;;20.30;99.90;;;;;;4144827;28;20022;-80
2021/05/11 10:49:22;;;;;;;18.38;14.15;;;20.60;99.90;;;;;;4155446;28;20026;-80
2021/05/11 10:51:26;;;;;;;19.27;14.10;;;20.60;99.90;;;;;;4167245;28;20036;-80
2021/05/11 10:53:46;;;;;;;22.30;15.43;;;20.70;99.90;;;;;;4166566;28;20049;-80
2021/05/11 10:55:48;;;;;;;24.00;14.95;;;20.60;99.90;;;;;;4146889;28;20073;-81
2021/05/11 11:00:00;;;;;;;17.08;12.38;;;20.50;99.90;;;;;;4157383;28;20272;-81
2021/05/11 11:02:26;;;;;;;17.27;14.13;;;20.40;99.90;;;;;;4163278;28;20033;-80
2021/05/11 11:04:44;;;;;;;14.45;10.68;;;20.50;99.90;;;;;;4167233;28;20033;-81
2021/05/11 11:06:57;;;;;;;12.85;9.77;;;20.40;99.90;;;;;;4167781;28;20042;-79
2021/05/11 11:09:07;;;;;;;;;;;20.50;99.90;;;;;;4163402;28;20393;-80
2021/05/11 11:11:11;;;;;;;15.27;11.02;;;20.40;99.90;;;;;;4155213;28;19913;-80
2021/05/11 11:13:12;;;;;;;16.83;11.63;;;20.50;99.90;;;;;;4167800;28;20043;-78
2021/05/11 11:15:17;;;;;;;13.68;11.32;;;20.50;99.90;;;;;;4161381;28;20025;-80
2021/05/11 11:17:17;;;;;;;13.93;12.40;;;20.40;99.90;;;;;;4165387;28;20021;-80
2021/05/11 11:19:18;;;;;;;16.50;11.90;;;20.30;99.90;;;;;;4166557;28;20032;-79
2021/05/11 11:21:34;;;;;;;16.70;10.98;;;20.20;99.90;;;;;;4172851;28;20049;-80
2021/05/11 11:23:45;;;;;;;19.13;11.15;;;20.10;99.90;;;;;;4164023;28;20045;-81
2021/05/11 11:26:09;;;;;;;14.90;11.52;;;19.90;99.90;;;;;;4165123;28;20034;-80
2021/05/11 11:28:10;;;;;;;15.35;11.68;;;19.70;99.90;;;;;;4155378;28;20056;-80
2021/05/11 11:30:12;;;;;;;16.77;11.70;;;19.70;99.90;;;;;;4163000;28;20042;-80
2021/05/11 11:32:20;;;;;;;17.92;12.35;;;19.50;99.90;;;;;;4165135;28;20045;-80
2021/05/11 11:34:25;;;;;;;17.20;12.77;;;19.20;99.90;;;;;;4165223;28;20072;-81
2021/05/11 11:36:36;;;;;;;20.00;12.52;;;19.10;99.90;;;;;;4158926;28;20137;-81
2021/05/11 11:38:37;;;;;;;17.48;13.57;;;18.80;99.90;;;;;;4164242;28;20127;-80
2021/05/11 11:40:38;;;;;;;17.65;13.18;;;18.60;99.90;;;;;;4164255;28;20120;-81
2021/05/11 11:42:41;;;;;;;18.90;12.77;;;18.60;99.90;;;;;;4165674;28;20123;-81
2021/05/11 11:44:41;;;;;;;19.08;13.52;;;18.40;99.90;;;;;;4170047;28;20116;-81
2021/05/11 11:46:42;;;;;;;18.70;14.00;;;18.40;99.90;;;;;;4161160;28;20045;-78
2021/05/11 11:48:59;;;;;;;18.65;13.25;;;18.20;99.90;;;;;;4171021;28;20030;-79
2021/05/11 11:51:03;;;;;;;16.98;13.27;;;18.00;99.90;;;;;;4171869;28;20152;-79
2021/05/11 11:53:20;;;;;;;18.73;15.13;;;18.00;99.90;;;;;;4170482;28;20025;-79
2021/05/11 11:57:54;;;;;;;25.58;13.68;;;17.90;99.90;;;;;;4169215;28;20021;-78
2021/05/11 11:59:57;;;;;;;15.52;13.90;;;17.80;99.90;;;;;;4168714;28;20057;-77
2021/05/11 12:02:04;;;;;;;22.75;14.43;;;17.60;99.90;;;;;;4169202;28;20048;-78
2021/05/11 12:04:05;;;;;;;17.05;14.00;;;17.60;99.90;;;;;;4168515;28;20052;-80
2021/05/11 12:06:06;;;;;;;15.60;13.55;;;17.60;99.90;;;;;;4164988;28;20506;-80
2021/05/11 12:08:29;;;;;;;19.88;14.55;;;17.60;99.90;;;;;;4161597;28;20041;-81
2021/05/11 12:10:31;;;;;;;22.30;13.85;;;17.70;99.90;;;;;;4151743;28;20129;-80
2021/05/11 12:12:32;;;;;;;18.10;13.70;;;17.70;99.90;;;;;;4155613;28;20052;-81
2021/05/11 12:14:37;;;;;;;22.65;15.52;;;17.80;99.90;;;;;;4159658;28;20034;-81
2021/05/11 12:16:46;;;;;;;21.50;15.43;;;17.60;99.90;;;;;;4163002;28;20033;-78
2021/05/11 12:19:08;;;;;;;17.98;15.70;;;17.60;99.90;;;;;;4164179;28;20029;-81
2021/05/11 12:21:10;;;;;;;21.52;15.70;;;17.60;99.90;;;;;;4165115;28;20029;-80
2021/05/11 12:23:16;;;;;;;23.92;16.13;;;17.50;99.90;;;;;;4160399;28;20112;-80
2021/05/11 12:25:24;;;;;;;22.08;15.32;;;17.50;99.90;;;;;;4156881;28;20571;-81
2021/05/11 12:27:25;;;;;;;19.25;13.85;;;17.50;99.90;;;;;;4164894;28;20448;-78
2021/05/11 12:29:25;;;;;;;20.95;13.82;;;17.50;99.90;;;;;;4162376;28;20033;-80
2021/05/11 12:31:35;;;;;;;20.48;13.55;;;17.50;99.90;;;;;;4156884;28;20045;-81
2021/05/11 12:33:44;;;;;;;17.10;10.82;;;17.50;99.90;;;;;;4157607;28;20032;-81
2021/05/11 12:35:44;;;;;;;17.25;10.50;;;17.40;99.90;;;;;;4164013;28;20037;-81
2021/05/11 12:37:49;;;;;;;18.42;12.35;;;17.30;99.90;;;;;;4163018;28;20049;-82
2021/05/11 12:39:54;;;;;;;19.98;11.90;;;17.00;99.90;;;;;;4167286;28;20540;-82
2021/05/11 12:42:18;;;;;;;16.90;9.18;;;16.70;99.90;;;;;;4168091;28;20044;-82
2021/05/11 12:44:29;;;;;;;14.82;8.98;;;16.50;99.90;;;;;;4164010;28;20037;-81
2021/05/11 12:46:37;;;;;;;13.68;8.95;;;16.20;99.90;;;;;;4160462;28;20153;-81
2021/05/11 12:48:51;;;;;;;13.98;10.73;;;16.10;99.90;;;;;;4148682;28;20034;-81
2021/05/11 12:50:52;;;;;;;18.58;8.55;;;16.10;99.90;;;;;;4160661;28;20820;-80
2021/05/11 12:52:55;;;;;;;19.13;9.52;;;16.10;99.90;;;;;;4153314;28;20040;-80
2021/05/11 12:54:55;;;;;;;15.38;9.98;;;16.10;99.90;;;;;;4179211;28;20022;-82
2021/05/11 13:01:07;;;;;;;14.93;10.20;;;16.10;99.90;;;;;;4159088;28;20042;-81
2021/05/11 13:17:08;;;;;;;13.07;8.68;;;16.40;99.90;;;;;;4149279;28;20446;-80
2021/05/11 13:21:40;;;;;;;16.27;10.05;;;16.70;99.90;;;;;;4161030;28;20036;-80
2021/05/11 13:26:25;;;;;;;16.58;9.38;;;17.00;99.90;;;;;;4127474;28;20032;-80
2021/05/11 13:34:52;;;;;;;17.98;8.30;;;17.50;99.90;;;;;;4169031;28;20506;-80
2021/05/11 13:36:53;;;;;;;11.23;7.93;;;17.40;99.90;;;;;;4168506;28;20049;-80
2021/05/11 13:38:54;;;;;;;14.80;8.60;;;17.30;99.90;;;;;;4163823;28;20404;-79
2021/05/11 13:40:56;;;;;;;15.18;9.82;;;17.30;99.90;;;;;;4166752;28;20033;-82
2021/05/11 13:42:57;;;;;;;12.23;8.65;;;17.10;99.90;;;;;;4170529;28;20022;-81
2021/05/11 13:44:58;;;;;;;14.45;8.75;;;17.10;99.90;;;;;;4168229;28;20132;-80
2021/05/11 13:46:58;;;;;;;17.95;10.70;;;17.00;99.90;;;;;;4166055;28;20152;-81
2021/05/11 13:48:59;;;;;;;11.30;9.48;;;16.90;99.90;;;;;;4157760;28;20381;-81
2021/05/11 13:51:03;;;;;;;13.38;9.80;;;17.00;99.90;;;;;;4160579;28;20022;-81
2021/05/11 13:53:04;;;;;;;18.00;10.50;;;17.10;99.90;;;;;;4166230;28;20021;-81
2021/05/11 13:55:14;;;;;;;15.13;9.23;;;16.90;99.90;;;;;;4168455;28;20035;-81
2021/05/11 13:57:23;;;;;;;15.02;11.25;;;16.70;99.90;;;;;;4171196;28;20061;-80
2021/05/11 14:03:55;;;;;;;16.17;10.73;;;16.50;99.90;;;;;;4165067;28;20722;-81
2021/05/11 14:05:57;;;;;;;15.13;10.52;;;16.50;99.90;;;;;;4171449;28;20049;-81
2021/05/11 14:07:58;;;;;;;14.55;9.60;;;16.60;99.90;;;;;;4168701;28;20029;-81
2021/05/11 14:09:58;;;;;;;17.90;10.48;;;16.80;99.90;;;;;;4175077;28;20064;-81
2021/05/11 14:11:59;;;;;;;14.30;8.80;;;16.90;99.90;;;;;;4166448;28;20463;-80
2021/05/11 14:14:01;;;;;;;20.58;10.20;;;17.00;99.90;;;;;;4176333;28;20032;-80
2021/05/11 14:16:02;;;;;;;14.15;9.65;;;17.10;99.90;;;;;;4168751;28;20022;-81
2021/05/11 14:18:03;;;;;;;12.13;9.25;;;17.10;99.90;;;;;;4173456;28;20029;-80
2021/05/11 14:20:04;;;;;;;16.75;11.10;;;17.20;99.90;;;;;;4172485;28;20384;-81